Terminal Aerodrome Forecast
Issued by NWS Greer, SC

Home | Current Version | Previous Version | Text Only | Print | Product List | Glossary On
Versions: 1 2 3 4 5 6 7 8 9 10 11 12 13 14 15 16 17 18 19 20 21
000
FTUS42 KGSP 180537
TAFGSP
TAF
KGSP 180537Z 1806/1906 23005KT P6SM FEW250
     FM181500 24008KT P6SM FEW250 PROB30 1818/1824 4SM -TSRA
      BKN060CB BKN150 BKN200
     FM190200 26004KT P6SM SCT060=

USA.gov is the U.S. government's official web portal to all federal, state and local government web resources and services.